createdAt,value
2018-07-10T00:00:51.791Z,15.99
2018-07-10T00:01:51.776Z,15.99
2018-07-10T00:02:51.761Z,15.96
2018-07-10T00:03:51.754Z,16.01
2018-07-10T00:04:51.735Z,15.95
2018-07-10T00:05:51.724Z,16.04
2018-07-10T00:06:51.716Z,15.99
2018-07-10T00:07:51.706Z,16.01
2018-07-10T00:08:51.689Z,16.03
2018-07-10T00:09:51.682Z,15.98
2018-07-10T00:10:51.666Z,16.01
2018-07-10T00:11:51.653Z,16.10
2018-07-10T00:12:51.649Z,16.07
2018-07-10T00:13:51.632Z,15.92
2018-07-10T00:14:51.630Z,16.13
2018-07-10T00:15:51.608Z,16.11
2018-07-10T00:16:51.604Z,16.07
2018-07-10T00:17:51.594Z,16.13
2018-07-10T00:18:51.575Z,16.18
2018-07-10T00:19:51.562Z,16.17
2018-07-10T00:20:51.560Z,16.08
2018-07-10T00:21:51.542Z,16.10
2018-07-10T00:22:51.536Z,16.08
2018-07-10T00:23:51.520Z,16.07
2018-07-10T00:24:51.509Z,16.08
2018-07-10T00:25:51.494Z,15.99
2018-07-10T00:26:51.483Z,16.07
2018-07-10T00:27:51.476Z,16.01
2018-07-10T00:28:51.459Z,15.95
2018-07-10T00:29:51.449Z,16.01
2018-07-10T00:30:51.438Z,15.99
2018-07-10T00:31:51.425Z,15.96
2018-07-10T00:32:51.414Z,15.91
2018-07-10T00:33:51.403Z,15.86
2018-07-10T00:34:51.402Z,15.98
2018-07-10T00:35:51.380Z,15.93
2018-07-10T00:36:51.367Z,15.99
2018-07-10T00:37:51.357Z,16.07
2018-07-10T00:38:51.350Z,15.95
2018-07-10T00:39:51.333Z,15.99
2018-07-10T00:40:51.325Z,16.06
2018-07-10T00:41:51.317Z,16.07
2018-07-10T00:42:51.304Z,16.08
2018-07-10T00:43:51.286Z,16.11
2018-07-10T00:44:51.283Z,16.08
2018-07-10T00:45:51.267Z,16.07
2018-07-10T00:46:51.254Z,16.14
2018-07-10T00:47:51.243Z,16.06
2018-07-10T00:48:51.235Z,16.13
2018-07-10T00:49:51.224Z,16.16
2018-07-10T00:50:51.210Z,16.11
2018-07-10T00:51:51.197Z,16.14
2018-07-10T00:52:51.191Z,16.14
2018-07-10T00:53:51.179Z,16.14
2018-07-10T00:54:51.168Z,16.18
2018-07-10T00:55:51.158Z,16.17
2018-07-10T00:56:51.138Z,16.23
2018-07-10T00:57:51.136Z,16.23
2018-07-10T00:58:51.121Z,16.26
2018-07-10T00:59:51.108Z,16.29
2018-07-10T01:00:51.100Z,16.29
2018-07-10T01:01:51.083Z,16.29
2018-07-10T01:02:51.071Z,16.16
2018-07-10T01:03:51.062Z,16.14
2018-07-10T01:04:51.048Z,16.11
2018-07-10T01:05:51.045Z,16.11
2018-07-10T01:06:51.031Z,16.16
2018-07-10T01:07:51.016Z,16.14
2018-07-10T01:08:51.009Z,16.14
2018-07-10T01:09:50.999Z,16.14
2018-07-10T01:10:50.982Z,16.17
2018-07-10T01:11:50.975Z,16.16
2018-07-10T01:12:50.966Z,16.11
2018-07-10T01:13:50.999Z,16.11
2018-07-10T01:14:50.941Z,16.14
2018-07-10T01:15:50.925Z,16.07
2018-07-10T01:16:50.920Z,16.11
2018-07-10T01:17:50.936Z,16.08
2018-07-10T01:18:50.899Z,15.99
2018-07-10T01:19:50.879Z,15.95
2018-07-10T01:20:50.869Z,15.98
2018-07-10T01:21:50.862Z,16.08
2018-07-10T01:22:50.848Z,15.99
2018-07-10T01:23:50.831Z,15.91
2018-07-10T01:24:50.825Z,15.84
2018-07-10T01:25:50.812Z,15.88
2018-07-10T01:26:50.804Z,15.85
2018-07-10T01:27:50.787Z,15.85
2018-07-10T01:28:50.774Z,15.91
2018-07-10T01:29:50.767Z,15.89
2018-07-10T01:30:50.755Z,15.92
2018-07-10T01:31:50.740Z,15.92
2018-07-10T01:32:50.728Z,15.89
2018-07-10T01:33:50.750Z,15.88
2018-07-10T01:34:50.911Z,15.85
2018-07-10T01:35:50.694Z,15.88
2018-07-10T01:36:50.690Z,15.91
2018-07-10T01:37:50.677Z,15.86
2018-07-10T01:38:50.658Z,15.95
2018-07-10T01:39:50.655Z,15.91
2018-07-10T01:40:50.643Z,15.91
2018-07-10T01:41:50.627Z,15.88
2018-07-10T01:42:50.618Z,15.88
2018-07-10T01:43:50.609Z,15.92
2018-07-10T01:44:50.592Z,15.89
2018-07-10T01:45:50.581Z,15.89
2018-07-10T01:46:50.566Z,15.92
2018-07-10T01:47:50.561Z,15.91
2018-07-10T01:48:50.544Z,15.95
2018-07-10T01:49:50.530Z,15.85
2018-07-10T01:50:50.522Z,15.86
2018-07-10T01:51:50.513Z,15.88
2018-07-10T01:52:50.507Z,15.77
2018-07-10T01:53:50.486Z,15.85
2018-07-10T01:54:50.476Z,15.89
2018-07-10T01:55:50.468Z,15.88
2018-07-10T01:56:50.452Z,15.86
2018-07-10T01:57:50.449Z,15.98
2018-07-10T01:58:50.437Z,16.04
2018-07-10T01:59:50.420Z,15.91
2018-07-10T02:00:50.404Z,15.84
2018-07-10T02:01:50.402Z,15.81
2018-07-10T02:02:50.382Z,15.70
2018-07-10T02:03:50.376Z,15.70
2018-07-10T02:04:50.359Z,15.71
2018-07-10T02:05:50.351Z,15.68
2018-07-10T02:06:50.342Z,15.67
2018-07-10T02:07:50.330Z,15.71
2018-07-10T02:08:50.318Z,15.71
2018-07-10T02:09:50.299Z,15.73
2018-07-10T02:10:50.296Z,15.77
2018-07-10T02:11:50.278Z,15.70
2018-07-10T02:12:50.264Z,15.71
2018-07-10T02:13:50.256Z,15.73
2018-07-10T02:14:50.250Z,15.77
2018-07-10T02:15:50.234Z,15.74
2018-07-10T02:16:50.224Z,15.78
2018-07-10T02:17:50.208Z,15.67
2018-07-10T02:18:50.196Z,15.78
2018-07-10T02:19:50.184Z,15.73
2018-07-10T02:20:50.172Z,15.76
2018-07-10T02:21:50.167Z,15.78
2018-07-10T02:22:50.147Z,15.88
2018-07-10T02:23:50.135Z,15.88
2018-07-10T02:24:50.134Z,15.91
2018-07-10T02:25:50.113Z,15.91
2018-07-10T02:26:50.101Z,15.91
2018-07-10T02:27:50.093Z,15.89
2018-07-10T02:28:50.084Z,15.85
2018-07-10T02:29:50.075Z,15.88
2018-07-10T02:30:50.064Z,15.88
2018-07-10T02:31:50.050Z,15.88
2018-07-10T02:32:50.038Z,15.88
2018-07-10T02:33:50.028Z,15.88
2018-07-10T02:34:50.014Z,15.88
2018-07-10T02:35:50.005Z,15.92
2018-07-10T02:36:49.993Z,15.89
2018-07-10T02:37:49.974Z,15.89
2018-07-10T02:38:49.973Z,15.91
2018-07-10T02:39:49.950Z,16.01
2018-07-10T02:40:49.944Z,15.86
2018-07-10T02:41:49.938Z,15.88
2018-07-10T02:42:49.924Z,15.85
2018-07-10T02:43:49.904Z,15.80
2018-07-10T02:44:49.892Z,15.74
2018-07-10T02:45:49.885Z,15.73
2018-07-10T02:46:50.082Z,15.68
2018-07-10T02:47:49.860Z,15.73
2018-07-10T02:48:49.849Z,15.76
2018-07-10T02:49:49.843Z,15.80
2018-07-10T02:50:49.825Z,15.84
2018-07-10T02:51:49.812Z,15.92
2018-07-10T02:52:49.805Z,15.89
2018-07-10T02:53:49.796Z,15.84
2018-07-10T02:54:49.777Z,15.93
2018-07-10T02:55:49.768Z,16.01
2018-07-10T02:56:49.756Z,15.85
2018-07-10T02:57:49.742Z,15.81
2018-07-10T02:58:49.736Z,15.77
2018-07-10T02:59:49.725Z,15.70
2018-07-10T03:00:49.708Z,15.73
2018-07-10T03:01:49.697Z,15.73
2018-07-10T03:02:49.686Z,15.77
2018-07-10T03:03:49.680Z,15.74
2018-07-10T03:04:49.663Z,15.67
2018-07-10T03:05:49.650Z,15.70
2018-07-10T03:06:49.648Z,15.62
2018-07-10T03:07:49.625Z,15.59
2018-07-10T03:08:49.616Z,15.52
2018-07-10T03:09:49.605Z,15.46
2018-07-10T03:10:49.593Z,15.30
2018-07-10T03:11:49.579Z,15.23
2018-07-10T03:12:49.568Z,15.16
2018-07-10T03:13:49.554Z,15.19
2018-07-10T03:14:49.543Z,15.25
2018-07-10T03:15:49.531Z,15.30
2018-07-10T03:16:49.520Z,15.22
2018-07-10T03:17:49.506Z,15.16
2018-07-10T03:18:49.494Z,15.01
2018-07-10T03:19:49.493Z,14.87
2018-07-10T03:20:49.475Z,14.78
2018-07-10T03:21:49.459Z,14.78
2018-07-10T03:22:49.448Z,14.66
2018-07-10T03:23:49.442Z,14.71
2018-07-10T03:24:49.423Z,14.64
2018-07-10T03:25:49.416Z,14.72
2018-07-10T03:26:49.398Z,14.61
2018-07-10T03:27:49.387Z,14.57
2018-07-10T03:28:49.573Z,14.63
2018-07-10T03:29:49.367Z,14.66
2018-07-10T03:30:49.351Z,14.61
2018-07-10T03:31:49.333Z,14.57
2018-07-10T03:32:49.322Z,14.56
2018-07-10T03:33:49.310Z,14.52
2018-07-10T03:34:49.305Z,14.52
2018-07-10T03:35:49.285Z,14.52
2018-07-10T03:36:49.272Z,14.54
2018-07-10T03:37:49.264Z,14.45
2018-07-10T03:38:49.250Z,14.45
2018-07-10T03:39:49.234Z,14.39
2018-07-10T03:40:49.220Z,14.46
2018-07-10T03:41:49.207Z,14.45
2018-07-10T03:42:49.197Z,14.56
2018-07-10T03:43:49.183Z,14.53
2018-07-10T03:44:49.296Z,14.52
2018-07-10T03:45:49.164Z,14.61
2018-07-10T03:46:49.150Z,14.63
2018-07-10T03:47:49.133Z,14.72
2018-07-10T03:48:49.121Z,14.46
2018-07-10T03:49:49.108Z,14.48
2018-07-10T03:50:49.099Z,14.41
2018-07-10T03:51:49.084Z,14.34
2018-07-10T03:52:49.069Z,14.27
2018-07-10T03:53:49.056Z,14.20
2018-07-10T03:54:49.047Z,14.35
2018-07-10T03:55:49.031Z,14.46
2018-07-10T03:56:49.017Z,14.41
2018-07-10T03:57:49.006Z,14.46
2018-07-10T03:58:48.992Z,14.39
2018-07-10T03:59:48.992Z,14.31
2018-07-10T04:00:48.966Z,14.16
2018-07-10T04:01:48.955Z,14.20
2018-07-10T04:02:48.943Z,14.09
2018-07-10T04:03:48.928Z,14.13
2018-07-10T04:04:48.915Z,14.19
2018-07-10T04:05:48.904Z,14.19
2018-07-10T04:06:48.894Z,14.20
2018-07-10T04:07:48.877Z,14.12
2018-07-10T04:10:32.459Z,14.19
2018-07-10T04:17:59.599Z,14.21
2018-07-10T04:18:59.583Z,14.27
2018-07-10T04:19:59.569Z,14.26
2018-07-10T04:20:59.557Z,14.26
2018-07-10T04:21:59.544Z,14.34
2018-07-10T04:22:59.532Z,14.24
2018-07-10T04:23:59.719Z,14.11
2018-07-10T04:24:59.505Z,14.26
2018-07-10T04:25:59.495Z,14.16
2018-07-10T04:26:59.482Z,14.11
2018-07-10T04:27:59.467Z,14.05
2018-07-10T04:28:59.591Z,14.05
2018-07-10T04:29:59.441Z,14.05
2018-07-10T04:30:59.429Z,13.99
2018-07-10T04:31:59.415Z,13.84
2018-07-10T04:32:59.402Z,13.71
2018-07-10T04:33:59.389Z,13.71
2018-07-10T04:34:59.376Z,13.86
2018-07-10T04:35:59.364Z,13.83
2018-07-10T04:36:59.352Z,13.75
2018-07-10T04:37:59.337Z,13.71
2018-07-10T04:38:59.324Z,13.79
2018-07-10T04:39:59.310Z,13.71
2018-07-10T04:40:59.297Z,13.69
2018-07-10T04:41:59.484Z,13.68
2018-07-10T04:42:59.273Z,13.65
2018-07-10T04:43:59.257Z,13.53
2018-07-10T04:44:59.244Z,13.53
2018-07-10T04:45:59.218Z,13.48
2018-07-10T04:46:59.206Z,13.51
2018-07-10T04:47:59.193Z,13.50
2018-07-10T04:48:59.213Z,13.43
2018-07-10T04:49:59.165Z,13.44
2018-07-10T04:50:59.152Z,13.43
2018-07-10T04:51:59.140Z,13.39
2018-07-10T04:52:59.125Z,13.41
2018-07-10T04:53:59.311Z,13.41
2018-07-10T04:54:59.099Z,13.43
2018-07-10T04:55:59.084Z,13.27
2018-07-10T04:56:59.071Z,13.29
2018-07-10T04:57:59.059Z,13.29
2018-07-10T04:58:59.059Z,13.31
2018-07-10T04:59:59.230Z,13.24
2018-07-10T05:00:59.016Z,13.10
2018-07-10T05:01:59.003Z,13.17
2018-07-10T05:02:58.989Z,13.16
2018-07-10T05:03:58.975Z,13.03
2018-07-10T05:04:58.962Z,13.09
2018-07-10T05:05:58.995Z,13.19
2018-07-10T05:06:58.938Z,13.14
2018-07-10T05:07:58.920Z,13.16
2018-07-10T05:08:58.907Z,13.13
2018-07-10T05:09:58.894Z,13.21
2018-07-10T05:10:58.880Z,13.24
2018-07-10T05:11:59.079Z,13.27
2018-07-10T05:12:58.852Z,13.32
2018-07-10T05:13:58.839Z,13.28
2018-07-10T05:14:58.825Z,13.25
2018-07-10T05:15:58.814Z,13.21
2018-07-10T05:16:58.798Z,13.35
2018-07-10T05:17:58.784Z,13.29
2018-07-10T05:18:58.770Z,13.24
2018-07-10T05:19:58.756Z,13.35
2018-07-10T05:20:58.743Z,13.24
2018-07-10T05:21:58.730Z,13.21
2018-07-10T05:22:58.765Z,13.31
2018-07-10T05:23:58.903Z,13.21
2018-07-10T05:24:58.688Z,13.24
2018-07-10T05:25:58.675Z,13.28
2018-07-10T05:26:58.677Z,13.31
2018-07-10T05:27:58.647Z,13.28
2018-07-10T05:28:58.710Z,13.32
2018-07-10T05:29:58.820Z,13.39
2018-07-10T05:30:58.607Z,13.39
2018-07-10T05:31:58.593Z,13.44
2018-07-10T05:32:58.580Z,13.39
2018-07-10T05:33:58.566Z,13.44
2018-07-10T05:34:58.553Z,13.38
2018-07-10T05:35:58.539Z,13.27
2018-07-10T05:36:58.525Z,13.29
2018-07-10T05:37:58.516Z,13.32
2018-07-10T05:38:58.503Z,13.16
2018-07-10T05:39:58.484Z,13.17
2018-07-10T05:40:58.472Z,13.31
2018-07-10T05:41:58.477Z,13.31
2018-07-10T05:42:58.445Z,13.29
2018-07-10T05:43:58.430Z,13.35
2018-07-10T05:44:58.417Z,13.39
2018-07-10T05:45:58.409Z,13.48
2018-07-10T05:46:58.390Z,13.48
2018-07-10T05:47:58.577Z,13.54
2018-07-10T05:48:58.363Z,13.51
2018-07-10T05:49:58.349Z,13.47
2018-07-10T05:50:58.336Z,13.46
2018-07-10T05:51:58.388Z,13.51
2018-07-10T05:52:58.309Z,13.51
2018-07-10T05:53:58.296Z,13.48
2018-07-10T05:54:58.283Z,13.46
2018-07-10T05:55:58.269Z,13.53
2018-07-10T05:56:58.255Z,13.61
2018-07-10T05:57:58.242Z,13.48
2018-07-10T05:58:58.229Z,13.48
2018-07-10T05:59:58.230Z,13.39
2018-07-10T06:00:58.202Z,13.24
2018-07-10T06:01:58.188Z,13.31
2018-07-10T06:02:58.175Z,13.25
2018-07-10T06:03:58.177Z,13.31
2018-07-10T06:04:58.148Z,13.36
2018-07-10T06:05:58.138Z,13.44
2018-07-10T06:06:58.121Z,13.48
2018-07-10T06:07:58.107Z,13.51
2018-07-10T06:08:58.094Z,13.51
2018-07-10T06:09:58.081Z,13.59
2018-07-10T06:10:58.068Z,13.57
2018-07-10T06:11:58.059Z,13.59
2018-07-10T06:12:58.053Z,13.38
2018-07-10T06:13:58.073Z,13.41
2018-07-10T06:14:58.027Z,13.27
2018-07-10T06:15:58.012Z,13.29
2018-07-10T06:16:57.998Z,13.24
2018-07-10T06:17:57.990Z,13.21
2018-07-10T06:18:57.972Z,13.01
2018-07-10T06:19:57.958Z,13.09
2018-07-10T06:20:57.945Z,13.09
2018-07-10T06:21:57.931Z,12.96
2018-07-10T06:22:57.917Z,13.04
2018-07-10T06:23:57.903Z,12.88
2018-07-10T06:24:57.889Z,12.94
2018-07-10T06:25:57.876Z,12.81
2018-07-10T06:26:57.862Z,12.89
2018-07-10T06:27:57.847Z,12.94
2018-07-10T06:28:57.834Z,12.98
2018-07-10T06:29:58.021Z,12.99
2018-07-10T06:30:57.806Z,13.04
2018-07-10T06:31:57.792Z,12.96
2018-07-10T06:32:57.781Z,12.92
2018-07-10T06:33:57.765Z,12.79
2018-07-10T06:34:57.752Z,12.71
2018-07-10T06:35:57.737Z,12.63
2018-07-10T06:36:57.725Z,12.58
2018-07-10T06:37:57.709Z,12.54
2018-07-10T06:38:57.696Z,12.46
2018-07-10T06:39:57.681Z,12.49
2018-07-10T06:40:57.667Z,12.54
2018-07-10T06:41:57.854Z,12.62
2018-07-10T06:42:57.641Z,12.62
2018-07-10T06:43:57.629Z,12.51
2018-07-10T06:44:57.612Z,12.52
2018-07-10T06:45:57.600Z,12.62
2018-07-10T06:46:57.583Z,12.73
2018-07-10T06:47:57.768Z,12.74
2018-07-10T06:48:57.556Z,12.79
2018-07-10T06:49:57.541Z,12.89
2018-07-10T06:50:57.529Z,12.85
2018-07-10T06:51:57.513Z,12.85
2018-07-10T06:52:57.735Z,12.84
2018-07-10T06:53:57.487Z,12.98
2018-07-10T06:54:57.471Z,12.84
2018-07-10T06:55:57.457Z,12.88
2018-07-10T06:56:57.446Z,12.91
2018-07-10T06:57:57.429Z,13.06
2018-07-10T06:58:57.415Z,12.99
2018-07-10T06:59:57.602Z,12.99
2018-07-10T07:00:57.387Z,13.07
2018-07-10T07:01:57.377Z,12.96
2018-07-10T07:02:57.939Z,12.98
2018-07-10T07:03:57.345Z,12.99
2018-07-10T07:04:57.332Z,12.87
2018-07-10T07:05:57.318Z,12.96
2018-07-10T07:06:57.304Z,13.04
2018-07-10T07:07:57.306Z,12.98
2018-07-10T07:08:57.278Z,13.01
2018-07-10T07:09:57.262Z,13.06
2018-07-10T07:10:57.249Z,13.01
2018-07-10T07:11:57.235Z,12.95
2018-07-10T07:12:57.221Z,13.04
2018-07-10T07:13:57.207Z,12.99
2018-07-10T07:14:57.196Z,13.06
2018-07-10T07:15:57.260Z,13.07
2018-07-10T07:16:57.166Z,13.09
2018-07-10T07:17:57.159Z,13.10
2018-07-10T07:18:57.140Z,13.10
2018-07-10T07:19:57.125Z,13.09
2018-07-10T07:20:57.115Z,13.10
2018-07-10T07:21:57.099Z,13.06
2018-07-10T07:22:57.084Z,13.03
2018-07-10T07:23:57.070Z,13.03
2018-07-10T07:24:57.059Z,12.98
2018-07-10T07:25:57.043Z,12.91
2018-07-10T07:26:57.029Z,12.98
2018-07-10T07:27:57.015Z,13.03
2018-07-10T07:28:57.001Z,13.01
2018-07-10T07:29:56.990Z,13.07
2018-07-10T07:30:56.974Z,12.99
2018-07-10T07:31:56.959Z,13.03
2018-07-10T07:32:56.950Z,13.04
2018-07-10T07:33:56.932Z,12.92
2018-07-10T07:34:56.922Z,12.99
2018-07-10T07:35:56.904Z,12.94
2018-07-10T07:36:56.890Z,12.98
2018-07-10T07:37:56.876Z,12.95
2018-07-10T07:38:56.863Z,12.81
2018-07-10T07:39:56.848Z,12.87
2018-07-10T07:40:56.841Z,12.99
2018-07-10T07:41:56.823Z,12.96
2018-07-10T07:42:56.809Z,12.99
2018-07-10T07:43:56.871Z,13.10
2018-07-10T07:44:56.780Z,13.04
2018-07-10T07:45:56.768Z,13.14
2018-07-10T07:46:56.753Z,13.16
2018-07-10T07:47:56.738Z,13.32
2018-07-10T07:48:56.724Z,13.29
2018-07-10T07:49:56.712Z,13.27
2018-07-10T07:50:56.697Z,13.27
2018-07-10T07:51:56.684Z,13.25
2018-07-10T07:52:56.670Z,13.27
2018-07-10T07:53:56.656Z,13.31
2018-07-10T07:54:56.649Z,13.27
2018-07-10T07:55:56.628Z,13.35
2018-07-10T07:56:56.615Z,13.35
2018-07-10T07:57:56.601Z,13.24
2018-07-10T07:58:56.589Z,13.28
2018-07-10T07:59:56.573Z,13.21
2018-07-10T08:00:56.563Z,13.06
2018-07-10T08:01:56.554Z,13.10
2018-07-10T08:02:56.534Z,12.96
2018-07-10T08:03:56.520Z,12.89
2018-07-10T08:04:56.506Z,13.06
2018-07-10T08:05:56.495Z,12.99
2018-07-10T08:06:56.479Z,13.03
2018-07-10T08:07:56.465Z,13.12
2018-07-10T08:08:56.452Z,13.10
2018-07-10T08:09:56.437Z,13.19
2018-07-10T08:10:56.426Z,13.09
2018-07-10T08:11:56.413Z,13.19
2018-07-10T08:12:56.396Z,13.14
2018-07-10T08:13:56.383Z,13.19
2018-07-10T08:14:56.369Z,13.19
2018-07-10T08:15:56.355Z,13.12
2018-07-10T08:16:56.341Z,13.17
2018-07-10T08:17:56.329Z,12.98
2018-07-10T08:18:56.315Z,13.01
2018-07-10T08:19:56.300Z,12.96
2018-07-10T08:20:56.287Z,13.03
2018-07-10T08:21:56.273Z,13.01
2018-07-10T08:22:56.260Z,13.12
2018-07-10T08:23:56.445Z,13.13
2018-07-10T08:24:56.231Z,13.21
2018-07-10T08:25:56.218Z,13.19
2018-07-10T08:26:56.205Z,13.25
2018-07-10T08:27:56.189Z,13.21
2018-07-10T08:28:56.176Z,13.27
2018-07-10T08:29:56.162Z,13.28
2018-07-10T08:30:56.149Z,13.31
2018-07-10T08:31:56.134Z,13.32
2018-07-10T08:32:56.122Z,13.43
2018-07-10T08:33:56.131Z,13.46
2018-07-10T08:34:56.094Z,13.28
2018-07-10T08:35:56.080Z,13.35
2018-07-10T08:36:56.066Z,13.31
2018-07-10T08:37:56.053Z,13.28
2018-07-10T08:38:56.040Z,13.28
2018-07-10T08:39:56.025Z,13.38
2018-07-10T08:40:56.012Z,13.39
2018-07-10T08:41:55.999Z,13.32
2018-07-10T08:42:55.985Z,13.35
2018-07-10T08:43:55.972Z,13.28
2018-07-10T08:44:55.957Z,13.27
2018-07-10T08:45:55.944Z,13.29
2018-07-10T08:46:55.931Z,13.21
2018-07-10T08:47:55.916Z,13.28
2018-07-10T08:48:55.903Z,13.28
2018-07-10T08:49:55.889Z,13.17
2018-07-10T08:50:55.877Z,13.10
2018-07-10T08:51:55.864Z,13.13
2018-07-10T08:52:55.848Z,13.14
2018-07-10T08:53:56.035Z,13.17
2018-07-10T08:54:55.821Z,13.25
2018-07-10T08:55:55.807Z,13.21
2018-07-10T08:56:55.793Z,13.14
2018-07-10T08:57:55.779Z,13.17
2018-07-10T08:58:55.766Z,13.16
2018-07-10T08:59:56.059Z,13.17
2018-07-10T09:00:55.738Z,13.21
2018-07-10T09:01:55.725Z,13.16
2018-07-10T09:02:55.716Z,13.21
2018-07-10T09:03:55.697Z,13.21
2018-07-10T09:04:55.683Z,13.27
2018-07-10T09:05:55.670Z,13.28
2018-07-10T09:06:55.656Z,13.25
2018-07-10T09:07:55.683Z,13.25
2018-07-10T09:08:55.628Z,13.35
2018-07-10T09:09:55.615Z,13.32
2018-07-10T09:10:55.601Z,13.28
2018-07-10T09:11:55.787Z,13.25
2018-07-10T09:12:55.573Z,13.24
2018-07-10T09:13:55.573Z,13.25
2018-07-10T09:14:55.546Z,13.21
2018-07-10T09:15:55.532Z,13.22
2018-07-10T09:16:55.518Z,13.24
2018-07-10T09:17:55.705Z,13.25
2018-07-10T09:18:55.491Z,13.09
2018-07-10T09:19:55.477Z,13.03
2018-07-10T09:20:55.464Z,13.04
2018-07-10T09:21:55.452Z,12.98
2018-07-10T09:22:55.436Z,12.98
2018-07-10T09:23:55.424Z,13.03
2018-07-10T09:24:55.410Z,13.06
2018-07-10T09:25:55.394Z,13.06
2018-07-10T09:26:55.382Z,13.04
2018-07-10T09:27:55.367Z,12.84
2018-07-10T09:28:55.353Z,13.01
2018-07-10T09:29:55.340Z,13.03
2018-07-10T09:30:55.326Z,13.09
2018-07-10T09:31:55.311Z,12.96
2018-07-10T09:32:55.297Z,12.99
2018-07-10T09:33:55.284Z,13.04
2018-07-10T09:34:55.270Z,12.95
2018-07-10T09:35:55.255Z,12.80
2018-07-10T09:36:55.241Z,12.77
2018-07-10T09:37:55.230Z,12.67
2018-07-10T09:38:55.216Z,12.81
2018-07-10T09:39:55.215Z,12.88
2018-07-10T09:40:55.186Z,12.79
2018-07-10T09:41:55.174Z,12.85
2018-07-10T09:42:55.159Z,12.87
2018-07-10T09:43:55.180Z,12.81
2018-07-10T09:44:55.131Z,12.81
2018-07-10T09:45:55.118Z,12.80
2018-07-10T09:46:55.122Z,12.85
2018-07-10T09:47:55.089Z,12.81
2018-07-10T09:48:55.076Z,12.84
2018-07-10T09:49:55.061Z,12.84
2018-07-10T09:50:55.047Z,12.85
2018-07-10T09:51:55.033Z,12.81
2018-07-10T09:52:55.019Z,12.95
2018-07-10T09:53:55.006Z,12.81
2018-07-10T09:54:55.014Z,12.91
2018-07-10T09:55:54.977Z,12.89
2018-07-10T09:56:54.963Z,13.01
2018-07-10T09:57:54.949Z,13.01
2018-07-10T09:58:54.937Z,12.96
2018-07-10T09:59:55.123Z,12.95
2018-07-10T10:00:54.907Z,12.95
2018-07-10T10:01:54.915Z,12.96
2018-07-10T10:02:54.880Z,13.04
2018-07-10T10:03:54.866Z,13.03
2018-07-10T10:04:54.852Z,13.04
2018-07-10T10:05:54.841Z,13.04
2018-07-10T10:06:54.825Z,13.04
2018-07-10T10:07:54.810Z,12.95
2018-07-10T10:08:54.798Z,12.92
2018-07-10T10:09:54.784Z,12.99
2018-07-10T10:10:54.769Z,12.99
2018-07-10T10:11:54.754Z,12.94
2018-07-10T10:12:54.741Z,12.85
2018-07-10T10:13:54.727Z,12.96
2018-07-10T10:14:54.714Z,12.98
2018-07-10T10:15:54.700Z,12.98
2018-07-10T10:16:54.685Z,12.99
2018-07-10T10:17:54.672Z,12.89
2018-07-10T10:18:54.658Z,13.01
2018-07-10T10:19:54.643Z,13.01
2018-07-10T10:20:54.630Z,13.06
2018-07-10T10:21:54.616Z,13.06
2018-07-10T10:22:54.605Z,13.03
2018-07-10T10:23:54.588Z,13.12
2018-07-10T10:24:54.575Z,13.14
2018-07-10T10:25:54.605Z,13.12
2018-07-10T10:26:54.548Z,13.17
2018-07-10T10:27:54.533Z,13.27
2018-07-10T10:28:54.519Z,13.35
2018-07-10T10:29:54.506Z,13.28
2018-07-10T10:30:54.494Z,13.24
2018-07-10T10:31:54.478Z,13.31
2018-07-10T10:32:54.465Z,13.25
2018-07-10T10:33:54.451Z,13.25
2018-07-10T10:34:54.438Z,13.21
2018-07-10T10:35:54.424Z,13.27
2018-07-10T10:36:54.410Z,13.24
2018-07-10T10:37:54.397Z,13.17
2018-07-10T10:38:54.383Z,12.99
2018-07-10T10:39:54.368Z,13.06
2018-07-10T10:40:54.359Z,13.03
2018-07-10T10:41:54.342Z,12.98
2018-07-10T10:42:54.328Z,12.85
2018-07-10T10:43:54.313Z,12.84
2018-07-10T10:44:54.300Z,12.89
2018-07-10T10:45:54.288Z,12.98
2018-07-10T10:46:54.273Z,13.01
2018-07-10T10:47:54.258Z,13.09
2018-07-10T10:48:54.245Z,13.01
2018-07-10T10:49:54.231Z,13.16
2018-07-10T10:50:54.220Z,13.10
2018-07-10T10:51:54.203Z,13.10
2018-07-10T10:52:54.189Z,13.09
2018-07-10T10:53:54.376Z,13.07
2018-07-10T10:54:54.223Z,13.10
2018-07-10T10:55:54.148Z,13.01
2018-07-10T10:56:54.134Z,13.10
2018-07-10T10:57:54.120Z,13.12
2018-07-10T10:58:54.107Z,13.13
2018-07-10T10:59:54.092Z,13.16
2018-07-10T11:00:54.078Z,13.14
2018-07-10T11:01:54.066Z,13.10
2018-07-10T11:02:54.053Z,13.12
2018-07-10T11:03:54.037Z,13.09
2018-07-10T11:04:54.023Z,13.12
2018-07-10T11:05:54.011Z,13.19
2018-07-10T11:06:53.997Z,13.21
2018-07-10T11:07:53.981Z,13.19
2018-07-10T11:08:53.967Z,13.25
2018-07-10T11:09:53.955Z,13.13
2018-07-10T11:10:53.942Z,13.31
2018-07-10T11:11:53.926Z,13.27
2018-07-10T11:12:53.946Z,13.25
2018-07-10T11:13:53.900Z,13.21
2018-07-10T11:14:53.885Z,13.32
2018-07-10T11:15:53.875Z,13.28
2018-07-10T11:16:53.858Z,13.36
2018-07-10T11:17:53.844Z,13.29
2018-07-10T11:18:53.831Z,13.27
2018-07-10T11:19:53.816Z,13.24
2018-07-10T11:20:53.803Z,13.28
2018-07-10T11:21:53.788Z,13.28
2018-07-10T11:22:53.775Z,13.29
2018-07-10T11:23:53.969Z,13.28
2018-07-10T11:24:53.748Z,13.29
2018-07-10T11:25:53.734Z,13.27
2018-07-10T11:26:53.721Z,13.32
2018-07-10T11:27:53.707Z,13.28
2018-07-10T11:28:53.693Z,13.31
2018-07-10T11:29:53.879Z,13.32
2018-07-10T11:30:53.667Z,13.31
2018-07-10T11:31:53.654Z,13.27
2018-07-10T11:32:53.641Z,13.25
2018-07-10T11:33:53.627Z,13.29
2018-07-10T11:34:53.623Z,13.28
2018-07-10T11:35:53.601Z,13.31
2018-07-10T11:36:53.596Z,13.35
2018-07-10T11:37:53.578Z,13.29
2018-07-10T11:38:53.560Z,13.32
2018-07-10T11:39:53.556Z,13.38
2018-07-10T11:40:53.551Z,13.35
2018-07-10T11:41:53.522Z,13.27
2018-07-10T11:42:53.501Z,13.29
2018-07-10T11:43:53.487Z,13.32
2018-07-10T11:44:53.474Z,13.32
2018-07-10T11:45:53.460Z,13.32
2018-07-10T11:46:53.475Z,13.29
2018-07-10T11:47:53.432Z,13.35
2018-07-10T11:48:53.418Z,13.43
2018-07-10T11:49:53.408Z,13.41
2018-07-10T11:50:53.391Z,13.38
2018-07-10T11:51:53.378Z,13.43
2018-07-10T11:52:53.363Z,13.32
2018-07-10T11:53:53.350Z,13.35
2018-07-10T11:54:53.337Z,13.31
2018-07-10T11:55:53.324Z,13.31
2018-07-10T11:56:53.309Z,13.35
2018-07-10T11:57:53.296Z,13.27
2018-07-10T11:58:53.283Z,13.29
2018-07-10T11:59:53.270Z,13.25
2018-07-10T12:00:53.256Z,13.35
2018-07-10T12:01:53.253Z,13.22
2018-07-10T12:02:53.229Z,13.21
2018-07-10T12:03:53.213Z,13.16
2018-07-10T12:04:53.209Z,13.22
2018-07-10T12:05:53.189Z,13.24
2018-07-10T12:06:53.174Z,13.25
2018-07-10T12:07:53.158Z,13.21
2018-07-10T12:08:53.149Z,13.31
2018-07-10T12:09:53.133Z,13.32
2018-07-10T12:10:53.127Z,13.25
2018-07-10T12:11:53.105Z,13.28
2018-07-10T12:12:53.091Z,13.36
2018-07-10T12:13:53.081Z,13.44
2018-07-10T12:14:53.063Z,13.38
2018-07-10T12:15:53.049Z,13.53
2018-07-10T12:16:53.038Z,13.51
2018-07-10T12:17:53.022Z,13.47
2018-07-10T12:18:53.008Z,13.38
2018-07-10T12:19:52.996Z,13.41
2018-07-10T12:20:52.999Z,13.47
2018-07-10T12:21:52.969Z,13.53
2018-07-10T12:22:52.955Z,13.66
2018-07-10T12:23:52.940Z,13.62
2018-07-10T12:24:52.926Z,13.63
2018-07-10T12:25:52.917Z,13.63
2018-07-10T12:26:52.901Z,13.71
2018-07-10T12:27:52.902Z,13.62
2018-07-10T12:28:52.873Z,13.73
2018-07-10T12:29:52.859Z,13.72
2018-07-10T12:30:52.847Z,13.69
2018-07-10T12:31:52.832Z,13.68
2018-07-10T12:32:52.819Z,13.59
2018-07-10T12:33:52.811Z,13.54
2018-07-10T12:34:52.799Z,13.54
2018-07-10T12:35:52.778Z,13.50
2018-07-10T12:36:52.767Z,13.48
2018-07-10T12:37:52.752Z,13.59
2018-07-10T12:38:52.739Z,13.53
2018-07-10T12:39:52.725Z,13.48
2018-07-10T12:40:52.712Z,13.62
2018-07-10T12:41:52.698Z,13.63
2018-07-10T12:42:52.685Z,13.65
2018-07-10T12:43:52.671Z,13.62
2018-07-10T12:44:52.657Z,13.61
2018-07-10T12:45:52.646Z,13.61
2018-07-10T12:46:52.632Z,13.73
2018-07-10T12:47:52.617Z,13.68
2018-07-10T12:48:52.604Z,13.69
2018-07-10T12:49:52.590Z,13.53
2018-07-10T12:50:52.580Z,13.59
2018-07-10T12:51:52.563Z,13.61
2018-07-10T12:52:52.550Z,13.63
2018-07-10T12:53:52.536Z,13.54
2018-07-10T12:54:52.525Z,13.53
2018-07-10T12:55:52.509Z,13.48
2018-07-10T12:56:52.496Z,13.51
2018-07-10T12:57:52.484Z,13.48
2018-07-10T12:58:52.470Z,13.48
2018-07-10T12:59:52.456Z,13.54
2018-07-10T13:00:52.446Z,13.44